Main page
METAR-TAF:

METAR-TAF

Airports :

Ferrara, Italy

latitude: 44-50N, longitude: 011-37E, elevation: 10 m

Current weather observation

The report was made 45 minutes ago, at 12:55 UTC
Wind 2 kt from the Northwest
Temperature 17°C
Humidity 72%
Pressure 1009 hPa
Visibility: 4000 m
Broken clouds at a height of 3000 ft
mist

METAR: LIPF 221255Z 31002KT 4000 BR BKN030 17/12 Q1009 RMK OVC VIS MIN 4000

Time: 15:40 (13:40 UTC)


TAF: missing

Weather observations and forecasts of more than 4000 airports (METAR and TAF reports).

The available stations are represented by yellow and red dots on the map.

Hover mouse over dot to see the name of the station.

Then click to see weather observations and forecasts.

To change the map : click on the green buttons with a black cross to zoom in, on the green button with a dash to zoom out, or on the green arrows for adjacent maps.


METAR-TAF: